createdAt,value
2022-12-13T00:00:31.544Z,37.53
2022-12-13T00:02:59.080Z,41.80
2022-12-13T00:05:26.620Z,41.07
2022-12-13T00:07:54.122Z,36.43
2022-12-13T00:10:21.603Z,36.83
2022-12-13T00:12:49.063Z,45.60
2022-12-13T00:15:16.872Z,47.43
2022-12-13T00:17:44.466Z,42.13
2022-12-13T00:20:12.544Z,37.97
2022-12-13T00:22:40.150Z,46.03
2022-12-13T00:25:07.759Z,44.27
2022-12-13T00:27:35.191Z,46.30
2022-12-13T00:30:02.906Z,47.60
2022-12-13T00:32:30.329Z,46.83
2022-12-13T00:34:57.818Z,47.33
2022-12-13T00:37:25.256Z,49.87
2022-12-13T00:39:52.923Z,49.20
2022-12-13T00:42:20.381Z,53.67
2022-12-13T00:44:47.867Z,50.07
2022-12-13T00:47:15.364Z,44.67
2022-12-13T00:49:42.789Z,51.60
2022-12-13T00:52:10.251Z,44.47
2022-12-13T00:54:37.704Z,54.50
2022-12-13T00:57:05.154Z,50.30
2022-12-13T00:59:32.620Z,40.83
2022-12-13T01:02:00.213Z,41.90
2022-12-13T01:04:27.958Z,45.23
2022-12-13T01:06:55.387Z,49.73
2022-12-13T01:09:24.307Z,46.37
2022-12-13T01:11:51.858Z,50.20
2022-12-13T01:14:19.641Z,43.90
2022-12-13T01:16:47.224Z,43.57
2022-12-13T01:19:14.853Z,43.77
2022-12-13T01:21:42.294Z,50.53
2022-12-13T01:24:09.766Z,47.37
2022-12-13T01:26:37.207Z,45.33
2022-12-13T01:29:04.659Z,40.27
2022-12-13T01:31:32.141Z,41.53
2022-12-13T01:33:59.626Z,41.73
2022-12-13T01:36:28.443Z,42.40
2022-12-13T01:38:59.441Z,47.00
2022-12-13T01:41:28.443Z,42.63
2022-12-13T01:43:57.880Z,42.80
2022-12-13T01:46:25.368Z,47.73
2022-12-13T01:48:55.727Z,61.13
2022-12-13T01:51:26.126Z,53.73
2022-12-13T01:53:54.651Z,41.47
2022-12-13T01:56:24.180Z,49.63
2022-12-13T01:58:52.676Z,42.43
2022-12-13T02:01:20.385Z,44.17
2022-12-13T02:03:47.925Z,45.23
2022-12-13T02:06:17.819Z,45.10
2022-12-13T02:08:45.852Z,50.07
2022-12-13T02:11:14.659Z,43.57
2022-12-13T02:13:42.231Z,48.43
2022-12-13T02:16:10.144Z,47.67
2022-12-13T02:18:40.407Z,41.63
2022-12-13T02:21:13.721Z,51.70
2022-12-13T02:23:50.307Z,44.90
2022-12-13T02:26:29.850Z,53.10
2022-12-13T02:29:03.072Z,47.10
2022-12-13T02:31:32.402Z,46.57
2022-12-13T02:34:07.764Z,39.50
2022-12-13T02:36:42.413Z,42.00
2022-12-13T02:39:29.714Z,44.50
2022-12-13T02:42:01.858Z,44.07
2022-12-13T02:44:36.314Z,49.97
2022-12-13T02:47:07.110Z,48.53
2022-12-13T02:49:42.926Z,47.30
2022-12-13T02:52:12.634Z,52.70
2022-12-13T02:54:42.892Z,55.50
2022-12-13T02:57:29.221Z,51.67
2022-12-13T02:59:57.563Z,48.67
2022-12-13T03:02:31.648Z,48.27
2022-12-13T03:04:59.377Z,54.03
2022-12-13T03:07:34.302Z,53.50
2022-12-13T03:10:12.949Z,52.10
2022-12-13T03:13:00.660Z,51.13
2022-12-13T03:16:06.728Z,50.57
2022-12-13T03:18:35.358Z,52.33
2022-12-13T03:21:03.982Z,50.73
2022-12-13T03:23:31.711Z,52.10
2022-12-13T03:26:08.061Z,56.13
2022-12-13T03:28:35.542Z,51.93
2022-12-13T03:31:03.120Z,53.37
2022-12-13T03:33:30.749Z,53.33
2022-12-13T03:35:58.492Z,53.93
2022-12-13T03:38:26.348Z,55.47
2022-12-13T03:40:56.490Z,51.00
2022-12-13T03:43:27.259Z,58.40
2022-12-13T03:45:55.374Z,56.17
2022-12-13T03:48:24.017Z,62.40
2022-12-13T03:50:52.862Z,57.13
2022-12-13T03:53:23.096Z,47.07
2022-12-13T03:56:03.075Z,48.00
2022-12-13T03:58:36.326Z,47.13
2022-12-13T04:01:08.904Z,46.90
2022-12-13T04:03:37.564Z,44.00
2022-12-13T04:06:06.000Z,48.17
2022-12-13T04:08:34.919Z,42.67
2022-12-13T04:11:03.376Z,45.17
2022-12-13T04:13:33.944Z,43.50
2022-12-13T04:16:05.418Z,43.20
2022-12-13T04:18:43.082Z,38.80
2022-12-13T04:21:11.205Z,45.47
2022-12-13T04:23:39.078Z,44.70
2022-12-13T04:26:09.140Z,41.57
2022-12-13T04:28:41.090Z,42.63
2022-12-13T04:31:10.453Z,42.80
2022-12-13T04:33:43.908Z,42.17
2022-12-13T04:36:14.758Z,42.50
2022-12-13T04:39:01.865Z,39.27
2022-12-13T04:41:34.459Z,41.37
2022-12-13T04:44:06.360Z,43.07
2022-12-13T04:47:02.968Z,45.37
2022-12-13T04:49:34.106Z,48.33
2022-12-13T04:52:02.807Z,44.57
2022-12-13T04:54:36.572Z,41.40
2022-12-13T04:57:06.295Z,41.83
2022-12-13T04:59:35.278Z,48.03
2022-12-13T05:02:08.828Z,58.17
2022-12-13T05:04:39.619Z,47.80
2022-12-13T05:07:10.514Z,45.37
2022-12-13T05:09:39.720Z,43.30
2022-12-13T05:12:21.886Z,50.83
2022-12-13T05:14:51.025Z,40.87
2022-12-13T05:17:19.038Z,45.77
2022-12-13T05:19:46.949Z,42.43
2022-12-13T05:22:19.398Z,38.80
2022-12-13T05:24:48.846Z,42.13
2022-12-13T05:27:24.682Z,45.83
2022-12-13T05:30:03.429Z,43.50
2022-12-13T05:32:43.948Z,44.70
2022-12-13T05:35:22.487Z,43.67
2022-12-13T05:37:53.729Z,39.87
2022-12-13T05:40:22.559Z,43.87
2022-12-13T05:42:50.082Z,46.87
2022-12-13T05:45:21.586Z,45.87
2022-12-13T05:47:49.310Z,45.23
2022-12-13T05:50:17.267Z,50.47
2022-12-13T05:52:45.116Z,41.70
2022-12-13T05:55:12.868Z,42.10
2022-12-13T05:57:40.422Z,41.80
2022-12-13T06:00:29.322Z,51.47
2022-12-13T06:02:56.435Z,44.80
2022-12-13T06:05:28.246Z,48.13
2022-12-13T06:07:57.581Z,48.50
2022-12-13T06:10:34.989Z,42.33
2022-12-13T06:13:21.163Z,49.20
2022-12-13T06:15:52.039Z,42.47
2022-12-13T06:18:31.129Z,50.37
2022-12-13T06:20:59.406Z,44.43
2022-12-13T06:23:27.173Z,51.47
2022-12-13T06:25:54.745Z,47.20
2022-12-13T06:28:22.256Z,45.17
2022-12-13T06:30:50.093Z,46.70
2022-12-13T06:33:23.269Z,48.20
2022-12-13T06:35:51.386Z,40.27
2022-12-13T06:38:21.909Z,44.70
2022-12-13T06:41:32.106Z,45.20
2022-12-13T06:43:59.931Z,49.33
2022-12-13T06:46:27.493Z,46.90
2022-12-13T06:48:54.977Z,44.57
2022-12-13T06:51:23.276Z,42.07
2022-12-13T06:54:01.350Z,46.77
2022-12-13T06:56:29.326Z,43.53
2022-12-13T06:59:01.227Z,45.07
2022-12-13T07:01:37.037Z,52.53
2022-12-13T07:04:29.957Z,55.07
2022-12-13T07:07:01.286Z,43.50
2022-12-13T07:09:30.539Z,44.03
2022-12-13T07:11:58.107Z,39.90
2022-12-13T07:14:25.703Z,50.73
2022-12-13T07:16:57.956Z,41.90
2022-12-13T07:19:35.282Z,46.87
2022-12-13T07:22:03.777Z,49.93
2022-12-13T07:24:31.231Z,40.03
2022-12-13T07:26:58.762Z,43.23
2022-12-13T07:29:26.203Z,47.90
2022-12-13T07:31:53.683Z,47.43
2022-12-13T07:34:29.869Z,46.27
2022-12-13T07:36:57.421Z,49.23
2022-12-13T07:39:27.107Z,48.03
2022-12-13T07:41:55.425Z,48.90
2022-12-13T07:44:22.963Z,51.70
2022-12-13T07:46:50.536Z,47.67
2022-12-13T07:49:18.100Z,54.67
2022-12-13T07:51:45.616Z,49.40
2022-12-13T07:54:13.086Z,48.23
2022-12-13T07:56:40.684Z,51.63
2022-12-13T07:59:10.360Z,41.70
2022-12-13T08:01:38.209Z,42.80
2022-12-13T08:04:05.830Z,46.30
2022-12-13T08:06:37.571Z,36.67
2022-12-13T08:09:05.628Z,35.83
2022-12-13T08:11:33.258Z,44.07
2022-12-13T08:14:00.939Z,39.33
2022-12-13T08:16:29.683Z,36.53
2022-12-13T08:19:02.462Z,41.80
2022-12-13T08:22:01.275Z,36.53
2022-12-13T08:24:30.150Z,40.47
2022-12-13T08:27:02.064Z,38.63
2022-12-13T08:29:33.967Z,37.03
2022-12-13T08:32:09.880Z,36.43
2022-12-13T08:34:37.701Z,36.73
2022-12-13T08:37:05.656Z,40.50
2022-12-13T08:39:34.245Z,36.77
2022-12-13T08:42:16.352Z,35.13
2022-12-13T08:44:46.569Z,31.37
2022-12-13T08:47:23.684Z,33.00
2022-12-13T08:50:02.042Z,30.23
2022-12-13T08:52:31.339Z,35.20
2022-12-13T08:54:58.826Z,32.93
2022-12-13T08:57:26.315Z,34.80
2022-12-13T08:59:53.780Z,29.40
2022-12-13T09:02:21.288Z,32.00
2022-12-13T09:04:48.744Z,32.33
2022-12-13T09:07:16.226Z,33.37
2022-12-13T09:09:43.842Z,34.73
2022-12-13T09:12:29.604Z,32.70
2022-12-13T09:15:01.397Z,31.43
2022-12-13T09:17:36.806Z,25.20
2022-12-13T09:20:10.309Z,23.37
2022-12-13T09:22:54.066Z,31.17
2022-12-13T09:25:37.132Z,32.30
2022-12-13T09:28:06.060Z,32.60
2022-12-13T09:30:33.519Z,26.93
2022-12-13T09:33:28.052Z,29.63
2022-12-13T09:35:48.563Z,30.83
2022-12-13T09:38:16.047Z,29.97
2022-12-13T09:40:44.858Z,31.60
2022-12-13T09:43:21.616Z,26.80
2022-12-13T09:45:51.408Z,30.03
2022-12-13T09:48:22.417Z,30.47
2022-12-13T09:50:58.506Z,29.30
2022-12-13T09:53:40.513Z,31.73
2022-12-13T09:56:11.398Z,26.27
2022-12-13T09:58:38.915Z,27.30
2022-12-13T10:01:06.768Z,27.47
2022-12-13T10:03:34.303Z,29.37
2022-12-13T10:06:07.015Z,26.60
2022-12-13T10:08:39.245Z,29.83
2022-12-13T10:11:06.869Z,28.37
2022-12-13T10:13:44.943Z,28.27
2022-12-13T10:16:36.104Z,28.07
2022-12-13T10:19:28.956Z,31.83
2022-12-13T10:22:01.450Z,25.70
2022-12-13T10:24:50.280Z,29.10
2022-12-13T10:27:18.595Z,25.83
2022-12-13T10:30:23.061Z,27.33
2022-12-13T10:32:53.759Z,27.43
2022-12-13T10:35:27.141Z,23.90
2022-12-13T10:37:55.921Z,27.43
2022-12-13T10:40:36.450Z,27.30
2022-12-13T10:43:17.440Z,27.23
2022-12-13T10:45:57.541Z,25.30
2022-12-13T10:48:47.374Z,27.17
2022-12-13T10:51:15.884Z,25.67
2022-12-13T10:53:50.265Z,24.97
2022-12-13T10:56:22.827Z,24.60
2022-12-13T10:59:15.139Z,29.07
2022-12-13T11:01:47.552Z,28.97
2022-12-13T11:04:28.978Z,27.93
2022-12-13T11:06:57.524Z,26.07
2022-12-13T11:09:38.288Z,27.10
2022-12-13T11:12:14.311Z,28.17
2022-12-13T11:14:50.629Z,27.20
2022-12-13T11:17:21.585Z,24.33
2022-12-13T11:20:01.156Z,31.00
2022-12-13T11:22:34.815Z,29.83
2022-12-13T11:25:03.959Z,24.93
2022-12-13T11:27:34.417Z,29.73
2022-12-13T11:30:14.214Z,22.30
2022-12-13T11:32:44.456Z,25.57
2022-12-13T11:35:16.985Z,25.47
2022-12-13T11:37:48.359Z,26.13
2022-12-13T11:40:19.788Z,27.80
2022-12-13T11:42:52.617Z,27.53
2022-12-13T11:45:32.118Z,28.93
2022-12-13T11:48:17.948Z,25.30
2022-12-13T11:50:49.918Z,27.47
2022-12-13T11:53:30.082Z,27.17
2022-12-13T11:56:03.710Z,21.93
2022-12-13T12:01:41.805Z,26.67
2022-12-13T12:04:32.055Z,23.33
2022-12-13T12:07:17.866Z,26.97
2022-12-13T12:10:18.446Z,22.97
2022-12-13T12:13:13.767Z,23.93
2022-12-13T12:15:56.936Z,19.00
2022-12-13T12:18:29.819Z,22.20
2022-12-13T12:21:06.927Z,24.40
2022-12-13T12:23:52.516Z,23.97
2022-12-13T12:26:24.597Z,25.93
2022-12-13T12:29:01.331Z,30.50
2022-12-13T12:31:51.215Z,15.37
2022-12-13T12:34:27.085Z,29.92
2022-12-13T12:37:08.490Z,27.30
2022-12-13T12:39:45.030Z,25.80
2022-12-13T12:42:15.808Z,17.77
2022-12-13T12:44:49.253Z,24.30
2022-12-13T12:47:37.349Z,23.07
2022-12-13T12:50:25.528Z,22.10
2022-12-13T12:52:59.154Z,20.53
2022-12-13T12:55:35.612Z,21.93
2022-12-13T12:58:08.349Z,22.00
2022-12-13T13:00:45.174Z,24.60
2022-12-13T13:03:22.974Z,13.87
2022-12-13T13:05:50.879Z,17.87
2022-12-13T13:08:18.447Z,21.27
2022-12-13T13:10:50.233Z,16.67
2022-12-13T13:13:37.159Z,17.93
2022-12-13T13:16:43.304Z,18.73
2022-12-13T13:19:16.855Z,17.80
2022-12-13T13:21:53.534Z,16.73
2022-12-13T13:24:22.771Z,18.53
2022-12-13T13:26:50.547Z,18.07
2022-12-13T13:29:27.408Z,14.43
2022-12-13T13:32:03.320Z,21.17
2022-12-13T13:34:34.015Z,18.47
2022-12-13T13:37:02.030Z,18.50
2022-12-13T13:39:29.541Z,18.13
2022-12-13T13:42:02.346Z,16.57
2022-12-13T13:44:48.635Z,18.77
2022-12-13T13:47:17.584Z,19.17
2022-12-13T13:50:04.762Z,21.10
2022-12-13T13:52:37.807Z,19.10
2022-12-13T13:55:21.345Z,19.97
2022-12-13T13:58:10.192Z,18.03
2022-12-13T14:00:56.686Z,23.47
2022-12-13T14:06:26.219Z,17.70
2022-12-13T14:09:02.700Z,24.17
2022-12-13T14:11:45.703Z,16.10
2022-12-13T14:14:21.717Z,22.37
2022-12-13T14:17:15.948Z,21.13
2022-12-13T14:20:02.608Z,20.23
2022-12-13T14:22:39.174Z,18.50
2022-12-13T14:25:12.438Z,21.53
2022-12-13T14:27:40.015Z,18.60
2022-12-13T14:30:28.079Z,22.80
2022-12-13T14:32:56.738Z,16.87
2022-12-13T14:35:27.273Z,21.03
2022-12-13T14:38:05.962Z,18.90
2022-12-13T14:40:37.585Z,20.17
2022-12-13T14:43:05.087Z,21.67
2022-12-13T14:45:37.330Z,19.47
2022-12-13T14:48:06.130Z,17.63
2022-12-13T14:50:37.657Z,16.33
2022-12-13T14:53:05.303Z,15.50
2022-12-13T14:55:32.904Z,16.97
2022-12-13T14:58:02.115Z,18.03
2022-12-13T15:00:31.990Z,18.30
2022-12-13T15:03:00.923Z,21.40
2022-12-13T15:05:33.857Z,18.90
2022-12-13T15:08:10.671Z,21.97
2022-12-13T15:10:41.174Z,20.73
2022-12-13T15:13:17.179Z,22.80
2022-12-13T15:15:44.772Z,20.77
2022-12-13T15:18:19.350Z,17.73
2022-12-13T15:20:47.898Z,17.37
2022-12-13T15:23:21.635Z,22.57
2022-12-13T15:25:51.106Z,23.97
2022-12-13T15:28:21.791Z,17.10
2022-12-13T15:30:50.339Z,18.77
2022-12-13T15:33:19.831Z,19.43
2022-12-13T15:35:48.561Z,17.00
2022-12-13T15:38:28.562Z,20.57
2022-12-13T15:40:59.383Z,20.87
2022-12-13T15:43:37.038Z,20.00
2022-12-13T15:46:05.155Z,15.03
2022-12-13T15:48:34.817Z,15.93
2022-12-13T15:51:06.759Z,15.97
2022-12-13T15:53:34.715Z,16.77
2022-12-13T15:56:09.477Z,16.57
2022-12-13T15:58:37.847Z,15.87
2022-12-13T16:01:05.992Z,18.93
2022-12-13T16:03:40.602Z,15.67
2022-12-13T16:06:10.739Z,17.80
2022-12-13T16:08:40.175Z,17.30
2022-12-13T16:11:08.569Z,19.30
2022-12-13T16:13:37.354Z,23.87
2022-12-13T16:16:26.675Z,18.50
2022-12-13T16:18:56.669Z,20.13
2022-12-13T16:21:24.506Z,18.40
2022-12-13T16:23:52.132Z,18.70
2022-12-13T16:26:24.601Z,18.67
2022-12-13T16:28:52.580Z,21.63
2022-12-13T16:31:21.599Z,20.10
2022-12-13T16:33:49.137Z,21.43
2022-12-13T16:36:16.656Z,19.97
2022-12-13T16:38:44.359Z,18.30
2022-12-13T16:41:11.962Z,15.60
2022-12-13T16:43:45.523Z,17.47
2022-12-13T16:47:16.657Z,15.53
2022-12-13T16:49:26.620Z,17.57
2022-12-13T16:51:54.733Z,16.33
2022-12-13T16:54:22.937Z,17.57
2022-12-13T16:56:51.177Z,18.47
2022-12-13T16:59:19.970Z,19.87
2022-12-13T17:01:47.625Z,17.97
2022-12-13T17:04:20.194Z,19.43
2022-12-13T17:06:54.462Z,29.20
2022-12-13T17:09:23.307Z,23.00
2022-12-13T17:11:50.992Z,19.23
2022-12-13T17:14:18.527Z,20.87
2022-12-13T17:16:46.047Z,17.97
2022-12-13T17:19:13.717Z,21.13
2022-12-13T17:21:41.323Z,18.07
2022-12-13T17:24:09.252Z,15.70
2022-12-13T17:26:36.699Z,20.93
2022-12-13T17:29:04.209Z,19.90
2022-12-13T17:31:35.260Z,15.50
2022-12-13T17:34:03.549Z,18.77
2022-12-13T17:36:31.007Z,17.70
2022-12-13T17:38:58.618Z,18.93
2022-12-13T17:41:26.638Z,16.73
2022-12-13T17:43:58.465Z,16.77
2022-12-13T17:46:26.000Z,16.23
2022-12-13T17:48:53.604Z,14.23
2022-12-13T17:51:23.357Z,18.63
2022-12-13T17:53:50.788Z,19.57
2022-12-13T17:56:18.329Z,19.37
2022-12-13T17:58:46.143Z,15.37
2022-12-13T18:01:17.841Z,14.50
2022-12-13T18:03:45.630Z,15.63
2022-12-13T18:06:13.284Z,15.37
2022-12-13T18:08:41.106Z,16.00
2022-12-13T18:13:57.794Z,19.07
2022-12-13T18:16:32.098Z,17.73
2022-12-13T18:19:04.585Z,13.37
2022-12-13T18:21:32.114Z,13.90
2022-12-13T18:24:00.099Z,14.57
2022-12-13T18:26:30.924Z,15.60
2022-12-13T18:28:58.478Z,14.07
2022-12-13T18:31:26.297Z,13.83
2022-12-13T18:33:54.800Z,17.93
2022-12-13T18:36:23.935Z,16.50
2022-12-13T18:38:51.769Z,16.17
2022-12-13T18:41:20.620Z,13.47
2022-12-13T18:43:48.524Z,13.07
2022-12-13T18:46:16.443Z,11.80
2022-12-13T18:48:44.109Z,12.83
2022-12-13T18:51:11.803Z,11.77
2022-12-13T18:53:39.881Z,13.27
2022-12-13T18:56:17.849Z,13.23
2022-12-13T18:58:46.644Z,13.27
2022-12-13T19:01:14.823Z,14.90
2022-12-13T19:03:43.441Z,12.03
2022-12-13T19:06:12.988Z,8.83
2022-12-13T19:08:40.548Z,16.63
2022-12-13T19:11:07.987Z,14.43
2022-12-13T19:13:35.557Z,12.83
2022-12-13T19:16:07.616Z,13.20
2022-12-13T19:18:35.533Z,21.90
2022-12-13T19:21:03.600Z,15.50
2022-12-13T19:23:31.685Z,14.00
2022-12-13T19:26:04.608Z,11.03
2022-12-13T19:28:32.121Z,15.50
2022-12-13T19:30:59.654Z,11.70
2022-12-13T19:33:27.675Z,14.10
2022-12-13T19:35:55.334Z,13.67
2022-12-13T19:38:22.963Z,13.13
2022-12-13T19:40:53.436Z,13.93
2022-12-13T19:43:24.349Z,12.30
2022-12-13T19:45:52.207Z,15.30
2022-12-13T19:48:19.951Z,15.13
2022-12-13T19:50:47.418Z,14.03
2022-12-13T19:53:14.911Z,13.67
2022-12-13T19:55:43.125Z,14.47
2022-12-13T19:58:10.812Z,12.37
2022-12-13T20:00:38.406Z,16.10
2022-12-13T20:03:06.055Z,12.73
2022-12-13T20:05:33.989Z,16.00
2022-12-13T20:08:01.574Z,12.07
2022-12-13T20:10:29.069Z,14.13
2022-12-13T20:12:56.535Z,13.57
2022-12-13T20:15:24.114Z,13.00
2022-12-13T20:17:51.853Z,14.33
2022-12-13T20:20:20.111Z,17.67
2022-12-13T20:22:48.358Z,14.77
2022-12-13T20:25:16.169Z,15.83
2022-12-13T20:27:43.769Z,13.83
2022-12-13T20:30:11.550Z,13.17
2022-12-13T20:32:39.033Z,15.40
2022-12-13T20:35:06.734Z,15.33
2022-12-13T20:37:34.207Z,10.77
2022-12-13T20:40:01.741Z,14.40
2022-12-13T20:42:29.432Z,14.87
2022-12-13T20:44:56.924Z,17.03
2022-12-13T20:47:24.589Z,11.07
2022-12-13T20:49:52.086Z,15.10
2022-12-13T20:52:19.507Z,12.00
2022-12-13T20:54:46.984Z,12.83
2022-12-13T20:57:14.649Z,13.77
2022-12-13T20:59:42.177Z,15.27
2022-12-13T21:02:12.707Z,15.90
2022-12-13T21:04:40.463Z,13.00
2022-12-13T21:07:08.016Z,12.70
2022-12-13T21:09:35.608Z,12.47
2022-12-13T21:12:03.065Z,11.57
2022-12-13T21:14:30.550Z,14.07
2022-12-13T21:16:59.043Z,18.20
2022-12-13T21:19:27.743Z,12.23
2022-12-13T21:21:55.882Z,13.20
2022-12-13T21:24:24.622Z,13.63
2022-12-13T21:26:54.225Z,10.90
2022-12-13T21:29:21.791Z,12.77
2022-12-13T21:31:49.682Z,13.43
2022-12-13T21:34:17.990Z,13.03
2022-12-13T21:36:46.814Z,13.20
2022-12-13T21:39:15.783Z,16.93
2022-12-13T21:41:43.588Z,12.37
2022-12-13T21:44:12.363Z,11.97
2022-12-13T21:49:27.365Z,13.00
2022-12-13T21:51:54.840Z,13.33
2022-12-13T21:54:22.314Z,15.43
2022-12-13T21:56:49.702Z,12.50
2022-12-13T21:59:19.170Z,12.97
2022-12-13T22:02:06.928Z,12.37
2022-12-13T22:04:35.260Z,12.13
2022-12-13T22:07:03.115Z,11.93
2022-12-13T22:09:30.630Z,11.03
2022-12-13T22:11:58.103Z,10.13
2022-12-13T22:14:25.689Z,11.33
2022-12-13T22:16:53.164Z,11.73
2022-12-13T22:19:20.848Z,10.43
2022-12-13T22:21:48.541Z,10.40
2022-12-13T22:24:16.030Z,11.17
2022-12-13T22:26:43.446Z,9.20
2022-12-13T22:29:13.769Z,9.90
2022-12-13T22:31:41.417Z,9.57
2022-12-13T22:34:08.979Z,9.03
2022-12-13T22:36:36.425Z,10.23
2022-12-13T22:39:05.013Z,10.97
2022-12-13T22:41:32.483Z,11.80
2022-12-13T22:44:00.291Z,12.73
2022-12-13T22:46:27.765Z,11.17
2022-12-13T22:48:55.207Z,14.53
2022-12-13T22:51:23.004Z,10.37
2022-12-13T22:53:50.635Z,8.30
2022-12-13T22:56:19.373Z,10.40
2022-12-13T22:58:47.029Z,9.63
2022-12-13T23:01:16.381Z,11.83
2022-12-13T23:03:44.253Z,9.67
2022-12-13T23:06:13.356Z,11.73
2022-12-13T23:08:44.558Z,12.60
2022-12-13T23:11:12.872Z,11.47
2022-12-13T23:13:40.286Z,13.83
2022-12-13T23:16:07.943Z,11.37
2022-12-13T23:18:35.357Z,12.57
2022-12-13T23:21:02.935Z,12.13
2022-12-13T23:23:30.386Z,12.57
2022-12-13T23:25:57.842Z,11.90
2022-12-13T23:28:25.756Z,12.03
2022-12-13T23:30:53.675Z,13.50
2022-12-13T23:33:21.158Z,15.00
2022-12-13T23:35:57.604Z,14.10
2022-12-13T23:38:25.391Z,12.63
2022-12-13T23:41:00.668Z,15.50
2022-12-13T23:43:28.884Z,13.40
2022-12-13T23:45:56.470Z,14.47
2022-12-13T23:48:27.009Z,11.87
2022-12-13T23:50:55.242Z,15.50
2022-12-13T23:53:23.437Z,15.70
2022-12-13T23:55:50.881Z,15.70
2022-12-13T23:58:19.072Z,13.90
